Norwood, Georgia
Current Conditions -  °F | °C
As of 1:35 PM on Monday 26 Jan 2015 (Local Time) from KHQU Reporting Station
Broken Clouds Broken Clouds  
Wind Chill: 54°   Ceiling: 4400
Heat Index: 54°   Visibility: 10mi
Dew Point: 41°   Wind: 18mph
Humidity: 63%   Direction: 290°WNW
Pressure: 29.76"   Gusts: 25mph
Location:  33.46°N, 82.71°W
Report Text: KHQU 261835Z AUTO 29016G22KT 10SM SCT036 BKN044 12/05 A2976 RMK AO1 T01210052
Loading
Personal Weather Stations






























Interactive Weather Map New forecast layout! Learn more

10-Day Weather Forecast

Advertisements
Track Severe Weather on mobile